sensor_id;sensor_type;location;lat;lon;timestamp;temperature;humidity
34460;DHT22;20704;51.260;22.558;2022-11-04T00:01:21;6.30;99.90
34460;DHT22;20704;51.260;22.558;2022-11-04T00:03:47;6.20;99.90
34460;DHT22;20704;51.260;22.558;2022-11-04T00:06:13;6.00;99.90
34460;DHT22;20704;51.260;22.558;2022-11-04T00:08:39;6.00;99.90
34460;DHT22;20704;51.260;22.558;2022-11-04T00:11:05;6.20;99.90
34460;DHT22;20704;51.260;22.558;2022-11-04T00:13:50;6.10;99.90
34460;DHT22;20704;51.260;22.558;2022-11-04T00:16:16;6.00;99.90
34460;DHT22;20704;51.260;22.558;2022-11-04T00:19:01;6.00;99.90
34460;DHT22;20704;51.260;22.558;2022-11-04T00:21:27;6.10;99.90
34460;DHT22;20704;51.260;22.558;2022-11-04T00:24:12;6.00;99.90
34460;DHT22;20704;51.260;22.558;2022-11-04T00:26:57;6.00;99.90
34460;DHT22;20704;51.260;22.558;2022-11-04T00:29:42;6.00;99.90
34460;DHT22;20704;51.260;22.558;2022-11-04T00:32:08;6.00;99.90
34460;DHT22;20704;51.260;22.558;2022-11-04T00:34:53;6.00;99.90
34460;DHT22;20704;51.260;22.558;2022-11-04T00:37:19;6.10;99.90
34460;DHT22;20704;51.260;22.558;2022-11-04T00:39:45;6.10;99.90
34460;DHT22;20704;51.260;22.558;2022-11-04T00:42:11;6.10;99.90
34460;DHT22;20704;51.260;22.558;2022-11-04T00:44:37;6.10;99.90
34460;DHT22;20704;51.260;22.558;2022-11-04T00:47:03;6.10;99.90
34460;DHT22;20704;51.260;22.558;2022-11-04T00:49:29;6.00;99.90
34460;DHT22;20704;51.260;22.558;2022-11-04T00:51:55;6.10;99.90
34460;DHT22;20704;51.260;22.558;2022-11-04T00:54:21;6.10;99.90
34460;DHT22;20704;51.260;22.558;2022-11-04T00:56:47;6.10;99.90
34460;DHT22;20704;51.260;22.558;2022-11-04T00:59:15;6.00;99.90
34460;DHT22;20704;51.260;22.558;2022-11-04T01:01:42;6.40;99.90
34460;DHT22;20704;51.260;22.558;2022-11-04T01:04:08;6.00;99.90
34460;DHT22;20704;51.260;22.558;2022-11-04T01:06:34;6.10;99.90
34460;DHT22;20704;51.260;22.558;2022-11-04T01:09:01;6.20;99.90
34460;DHT22;20704;51.260;22.558;2022-11-04T01:11:28;6.10;99.90
34460;DHT22;20704;51.260;22.558;2022-11-04T01:13:56;6.10;99.90
34460;DHT22;20704;51.260;22.558;2022-11-04T01:16:21;6.10;99.90
34460;DHT22;20704;51.260;22.558;2022-11-04T01:18:48;6.10;99.90
34460;DHT22;20704;51.260;22.558;2022-11-04T01:21:14;6.20;99.90
34460;DHT22;20704;51.260;22.558;2022-11-04T01:23:41;6.10;99.90
34460;DHT22;20704;51.260;22.558;2022-11-04T01:26:07;6.10;99.90
34460;DHT22;20704;51.260;22.558;2022-11-04T01:28:34;6.10;99.90
34460;DHT22;20704;51.260;22.558;2022-11-04T01:31:10;6.10;99.90
34460;DHT22;20704;51.260;22.558;2022-11-04T01:33:37;6.00;99.90
34460;DHT22;20704;51.260;22.558;2022-11-04T01:36:03;6.10;99.90
34460;DHT22;20704;51.260;22.558;2022-11-04T01:38:29;6.00;99.90
34460;DHT22;20704;51.260;22.558;2022-11-04T01:40:55;6.10;99.90
34460;DHT22;20704;51.260;22.558;2022-11-04T01:45:55;6.00;99.90
34460;DHT22;20704;51.260;22.558;2022-11-04T01:48:26;5.90;99.90
34460;DHT22;20704;51.260;22.558;2022-11-04T01:50:53;6.00;99.90
34460;DHT22;20704;51.260;22.558;2022-11-04T01:53:21;6.00;99.90
34460;DHT22;20704;51.260;22.558;2022-11-04T01:55:50;6.00;99.90
34460;DHT22;20704;51.260;22.558;2022-11-04T01:58:17;6.10;99.90
34460;DHT22;20704;51.260;22.558;2022-11-04T02:00:44;6.20;99.90
34460;DHT22;20704;51.260;22.558;2022-11-04T02:03:20;6.00;99.90
34460;DHT22;20704;51.260;22.558;2022-11-04T02:05:47;6.10;99.90
34460;DHT22;20704;51.260;22.558;2022-11-04T02:08:14;6.10;99.90
34460;DHT22;20704;51.260;22.558;2022-11-04T02:10:41;6.10;99.90
34460;DHT22;20704;51.260;22.558;2022-11-04T02:13:11;6.10;99.90
34460;DHT22;20704;51.260;22.558;2022-11-04T02:15:52;6.00;99.90
34460;DHT22;20704;51.260;22.558;2022-11-04T02:23:45;6.00;99.90
34460;DHT22;20704;51.260;22.558;2022-11-04T02:36:02;5.90;99.90
34460;DHT22;20704;51.260;22.558;2022-11-04T02:41:31;5.90;99.90
34460;DHT22;20704;51.260;22.558;2022-11-04T02:46:34;5.80;99.90
34460;DHT22;20704;51.260;22.558;2022-11-04T02:49:02;5.90;99.90
34460;DHT22;20704;51.260;22.558;2022-11-04T02:51:32;5.80;99.90
34460;DHT22;20704;51.260;22.558;2022-11-04T02:54:08;5.80;99.90
34460;DHT22;20704;51.260;22.558;2022-11-04T02:56:37;5.80;99.90
34460;DHT22;20704;51.260;22.558;2022-11-04T02:59:06;5.80;99.90
34460;DHT22;20704;51.260;22.558;2022-11-04T03:01:35;5.80;99.90
34460;DHT22;20704;51.260;22.558;2022-11-04T03:04:05;5.80;99.90
34460;DHT22;20704;51.260;22.558;2022-11-04T03:06:33;5.80;99.90
34460;DHT22;20704;51.260;22.558;2022-11-04T03:09:00;5.60;99.90
34460;DHT22;20704;51.260;22.558;2022-11-04T03:11:27;5.70;99.90
34460;DHT22;20704;51.260;22.558;2022-11-04T03:13:54;5.60;99.90
34460;DHT22;20704;51.260;22.558;2022-11-04T03:16:24;5.70;99.90
34460;DHT22;20704;51.260;22.558;2022-11-04T03:21:36;5.70;99.90
34460;DHT22;20704;51.260;22.558;2022-11-04T03:26:40;5.70;99.90
34460;DHT22;20704;51.260;22.558;2022-11-04T03:34:29;5.70;99.90
34460;DHT22;20704;51.260;22.558;2022-11-04T03:39:21;5.70;99.90
34460;DHT22;20704;51.260;22.558;2022-11-04T03:41:48;5.70;99.90
34460;DHT22;20704;51.260;22.558;2022-11-04T03:44:15;5.80;99.90
34460;DHT22;20704;51.260;22.558;2022-11-04T03:46:41;5.80;99.90
34460;DHT22;20704;51.260;22.558;2022-11-04T03:49:07;5.80;99.90
34460;DHT22;20704;51.260;22.558;2022-11-04T03:51:34;5.70;99.90
34460;DHT22;20704;51.260;22.558;2022-11-04T03:54:00;5.90;99.90
34460;DHT22;20704;51.260;22.558;2022-11-04T04:01:49;5.80;99.90
34460;DHT22;20704;51.260;22.558;2022-11-04T04:07:03;5.80;99.90
34460;DHT22;20704;51.260;22.558;2022-11-04T04:09:32;5.70;99.90
34460;DHT22;20704;51.260;22.558;2022-11-04T04:12:01;5.70;99.90
34460;DHT22;20704;51.260;22.558;2022-11-04T04:14:33;5.80;99.90
34460;DHT22;20704;51.260;22.558;2022-11-04T04:19:35;5.80;99.90
34460;DHT22;20704;51.260;22.558;2022-11-04T04:22:06;5.70;99.90
34460;DHT22;20704;51.260;22.558;2022-11-04T04:24:34;5.60;99.90
34460;DHT22;20704;51.260;22.558;2022-11-04T04:27:20;5.80;99.90
34460;DHT22;20704;51.260;22.558;2022-11-04T04:29:56;5.80;99.90
34460;DHT22;20704;51.260;22.558;2022-11-04T04:34:49;5.70;99.90
34460;DHT22;20704;51.260;22.558;2022-11-04T04:45:18;5.80;99.90
34460;DHT22;20704;51.260;22.558;2022-11-04T04:47:45;5.90;99.90
34460;DHT22;20704;51.260;22.558;2022-11-04T04:50:15;5.80;99.90
34460;DHT22;20704;51.260;22.558;2022-11-04T04:52:44;5.90;99.90
34460;DHT22;20704;51.260;22.558;2022-11-04T04:55:11;5.90;99.90
34460;DHT22;20704;51.260;22.558;2022-11-04T04:57:37;5.90;99.90
34460;DHT22;20704;51.260;22.558;2022-11-04T05:00:03;6.10;99.90
34460;DHT22;20704;51.260;22.558;2022-11-04T05:02:30;6.00;99.90
34460;DHT22;20704;51.260;22.558;2022-11-04T05:04:55;6.20;99.90
34460;DHT22;20704;51.260;22.558;2022-11-04T05:07:21;6.20;99.90
34460;DHT22;20704;51.260;22.558;2022-11-04T05:09:47;6.20;99.90
34460;DHT22;20704;51.260;22.558;2022-11-04T05:12:13;6.00;99.90
34460;DHT22;20704;51.260;22.558;2022-11-04T05:14:40;6.00;99.90
34460;DHT22;20704;51.260;22.558;2022-11-04T05:17:05;6.10;99.90
34460;DHT22;20704;51.260;22.558;2022-11-04T05:19:32;6.20;99.90
34460;DHT22;20704;51.260;22.558;2022-11-04T05:21:58;5.90;99.90
34460;DHT22;20704;51.260;22.558;2022-11-04T05:24:24;6.00;99.90
34460;DHT22;20704;51.260;22.558;2022-11-04T05:26:50;6.00;99.90
34460;DHT22;20704;51.260;22.558;2022-11-04T05:29:16;5.90;99.90
34460;DHT22;20704;51.260;22.558;2022-11-04T05:31:42;5.90;99.90
34460;DHT22;20704;51.260;22.558;2022-11-04T05:34:11;6.00;99.90
34460;DHT22;20704;51.260;22.558;2022-11-04T05:36:37;6.00;99.90
34460;DHT22;20704;51.260;22.558;2022-11-04T05:39:04;6.00;99.90
34460;DHT22;20704;51.260;22.558;2022-11-04T05:41:31;5.90;99.90
34460;DHT22;20704;51.260;22.558;2022-11-04T05:43:58;5.90;99.90
34460;DHT22;20704;51.260;22.558;2022-11-04T05:46:24;6.00;99.90
34460;DHT22;20704;51.260;22.558;2022-11-04T05:48:50;5.60;99.90
34460;DHT22;20704;51.260;22.558;2022-11-04T05:51:18;5.90;99.90
34460;DHT22;20704;51.260;22.558;2022-11-04T05:56:11;5.90;99.90
34460;DHT22;20704;51.260;22.558;2022-11-04T05:58:37;5.90;99.90
34460;DHT22;20704;51.260;22.558;2022-11-04T06:06:13;6.00;99.90
34460;DHT22;20704;51.260;22.558;2022-11-04T06:08:40;6.00;99.90
34460;DHT22;20704;51.260;22.558;2022-11-04T06:11:05;6.00;99.90
34460;DHT22;20704;51.260;22.558;2022-11-04T06:13:32;6.10;99.90
34460;DHT22;20704;51.260;22.558;2022-11-04T06:18:24;6.10;99.90
34460;DHT22;20704;51.260;22.558;2022-11-04T06:21:05;6.00;99.90
34460;DHT22;20704;51.260;22.558;2022-11-04T06:23:31;6.00;99.90
34460;DHT22;20704;51.260;22.558;2022-11-04T06:25:57;6.20;99.90
34460;DHT22;20704;51.260;22.558;2022-11-04T06:28:23;6.10;99.90
34460;DHT22;20704;51.260;22.558;2022-11-04T06:33:15;6.20;99.90
34460;DHT22;20704;51.260;22.558;2022-11-04T06:35:41;6.20;99.90
34460;DHT22;20704;51.260;22.558;2022-11-04T06:38:07;6.30;99.90
34460;DHT22;20704;51.260;22.558;2022-11-04T06:40:33;6.30;99.90
34460;DHT22;20704;51.260;22.558;2022-11-04T06:42:59;6.40;99.90
34460;DHT22;20704;51.260;22.558;2022-11-04T06:47:52;6.40;99.90
34460;DHT22;20704;51.260;22.558;2022-11-04T06:50:17;6.50;99.90
34460;DHT22;20704;51.260;22.558;2022-11-04T06:52:43;6.40;99.90
34460;DHT22;20704;51.260;22.558;2022-11-04T06:55:09;6.40;99.90
34460;DHT22;20704;51.260;22.558;2022-11-04T06:57:36;6.50;99.90
34460;DHT22;20704;51.260;22.558;2022-11-04T07:00:02;6.50;99.90
34460;DHT22;20704;51.260;22.558;2022-11-04T07:02:28;6.60;99.90
34460;DHT22;20704;51.260;22.558;2022-11-04T07:04:54;6.60;99.90
34460;DHT22;20704;51.260;22.558;2022-11-04T07:07:20;6.70;99.90
34460;DHT22;20704;51.260;22.558;2022-11-04T07:09:46;6.70;99.90
34460;DHT22;20704;51.260;22.558;2022-11-04T07:12:12;6.80;99.90
34460;DHT22;20704;51.260;22.558;2022-11-04T07:14:38;6.80;99.90
34460;DHT22;20704;51.260;22.558;2022-11-04T07:17:04;6.90;99.90
34460;DHT22;20704;51.260;22.558;2022-11-04T07:19:30;6.80;99.90
34460;DHT22;20704;51.260;22.558;2022-11-04T07:21:56;6.90;99.90
34460;DHT22;20704;51.260;22.558;2022-11-04T07:24:22;7.00;99.90
34460;DHT22;20704;51.260;22.558;2022-11-04T07:26:48;7.10;99.90
34460;DHT22;20704;51.260;22.558;2022-11-04T07:29:14;7.20;99.90
34460;DHT22;20704;51.260;22.558;2022-11-04T07:31:40;6.90;99.90
34460;DHT22;20704;51.260;22.558;2022-11-04T07:34:06;7.10;99.90
34460;DHT22;20704;51.260;22.558;2022-11-04T07:36:32;7.20;99.90
34460;DHT22;20704;51.260;22.558;2022-11-04T07:38:58;7.30;99.90
34460;DHT22;20704;51.260;22.558;2022-11-04T07:41:24;7.40;99.90
34460;DHT22;20704;51.260;22.558;2022-11-04T07:43:50;7.30;99.90
34460;DHT22;20704;51.260;22.558;2022-11-04T07:46:16;7.50;99.90
34460;DHT22;20704;51.260;22.558;2022-11-04T07:48:43;7.50;99.90
34460;DHT22;20704;51.260;22.558;2022-11-04T07:53:35;7.60;99.90
34460;DHT22;20704;51.260;22.558;2022-11-04T07:56:05;7.60;99.90
34460;DHT22;20704;51.260;22.558;2022-11-04T07:58:31;7.60;99.90
34460;DHT22;20704;51.260;22.558;2022-11-04T08:00:59;7.60;99.90
34460;DHT22;20704;51.260;22.558;2022-11-04T08:03:25;7.70;99.90
34460;DHT22;20704;51.260;22.558;2022-11-04T08:05:57;7.60;99.90
34460;DHT22;20704;51.260;22.558;2022-11-04T08:08:24;7.70;99.90
34460;DHT22;20704;51.260;22.558;2022-11-04T08:10:54;8.00;99.90
34460;DHT22;20704;51.260;22.558;2022-11-04T08:13:21;7.90;99.90
34460;DHT22;20704;51.260;22.558;2022-11-04T08:15:48;7.80;99.90
34460;DHT22;20704;51.260;22.558;2022-11-04T08:18:14;7.90;99.90
34460;DHT22;20704;51.260;22.558;2022-11-04T08:20:45;7.80;99.90
34460;DHT22;20704;51.260;22.558;2022-11-04T08:23:11;8.00;99.90
34460;DHT22;20704;51.260;22.558;2022-11-04T08:25:37;8.00;99.90
34460;DHT22;20704;51.260;22.558;2022-11-04T08:28:03;8.10;99.90
34460;DHT22;20704;51.260;22.558;2022-11-04T08:30:29;8.00;99.90
34460;DHT22;20704;51.260;22.558;2022-11-04T08:32:55;8.30;99.90
34460;DHT22;20704;51.260;22.558;2022-11-04T08:35:21;8.20;99.90
34460;DHT22;20704;51.260;22.558;2022-11-04T08:37:47;8.30;99.90
34460;DHT22;20704;51.260;22.558;2022-11-04T08:40:13;8.20;99.90
34460;DHT22;20704;51.260;22.558;2022-11-04T08:42:38;8.20;99.90
34460;DHT22;20704;51.260;22.558;2022-11-04T08:45:05;8.10;99.90
34460;DHT22;20704;51.260;22.558;2022-11-04T08:47:31;8.30;99.90
34460;DHT22;20704;51.260;22.558;2022-11-04T08:49:57;8.20;99.90
34460;DHT22;20704;51.260;22.558;2022-11-04T08:52:23;8.40;99.90
34460;DHT22;20704;51.260;22.558;2022-11-04T08:54:49;8.40;99.90
34460;DHT22;20704;51.260;22.558;2022-11-04T08:57:17;8.70;99.90
34460;DHT22;20704;51.260;22.558;2022-11-04T08:59:44;8.40;99.90
34460;DHT22;20704;51.260;22.558;2022-11-04T09:02:12;8.80;99.90
34460;DHT22;20704;51.260;22.558;2022-11-04T09:04:39;8.80;99.90
34460;DHT22;20704;51.260;22.558;2022-11-04T09:07:05;8.70;99.90
34460;DHT22;20704;51.260;22.558;2022-11-04T09:09:32;8.80;99.90
34460;DHT22;20704;51.260;22.558;2022-11-04T09:11:58;8.90;99.90
34460;DHT22;20704;51.260;22.558;2022-11-04T09:14:24;8.80;99.90
34460;DHT22;20704;51.260;22.558;2022-11-04T09:16:50;8.50;99.90
34460;DHT22;20704;51.260;22.558;2022-11-04T09:19:16;8.70;99.90
34460;DHT22;20704;51.260;22.558;2022-11-04T09:21:42;8.80;99.90
34460;DHT22;20704;51.260;22.558;2022-11-04T09:24:08;8.70;99.90
34460;DHT22;20704;51.260;22.558;2022-11-04T09:26:36;9.00;99.90
34460;DHT22;20704;51.260;22.558;2022-11-04T09:29:02;9.10;99.90
34460;DHT22;20704;51.260;22.558;2022-11-04T09:31:29;9.10;99.90
34460;DHT22;20704;51.260;22.558;2022-11-04T09:33:55;8.90;99.90
34460;DHT22;20704;51.260;22.558;2022-11-04T09:36:21;9.00;99.90
34460;DHT22;20704;51.260;22.558;2022-11-04T09:38:48;9.50;99.90
34460;DHT22;20704;51.260;22.558;2022-11-04T09:46:35;9.40;99.90
34460;DHT22;20704;51.260;22.558;2022-11-04T09:49:02;9.50;99.90
34460;DHT22;20704;51.260;22.558;2022-11-04T09:51:28;12.10;99.90
34460;DHT22;20704;51.260;22.558;2022-11-04T09:53:57;9.50;99.90
34460;DHT22;20704;51.260;22.558;2022-11-04T09:56:27;9.40;99.90
34460;DHT22;20704;51.260;22.558;2022-11-04T09:58:54;9.40;99.90
34460;DHT22;20704;51.260;22.558;2022-11-04T10:01:22;9.90;99.90
34460;DHT22;20704;51.260;22.558;2022-11-04T10:03:57;9.80;99.90
34460;DHT22;20704;51.260;22.558;2022-11-04T10:09:36;10.20;99.90
34460;DHT22;20704;51.260;22.558;2022-11-04T10:17:00;10.10;99.90
34460;DHT22;20704;51.260;22.558;2022-11-04T10:22:09;10.80;99.90
34460;DHT22;20704;51.260;22.558;2022-11-04T10:24:48;11.20;99.90
34460;DHT22;20704;51.260;22.558;2022-11-04T10:27:18;10.70;99.90
34460;DHT22;20704;51.260;22.558;2022-11-04T10:29:47;11.10;99.90
34460;DHT22;20704;51.260;22.558;2022-11-04T10:32:26;11.40;99.90
34460;DHT22;20704;51.260;22.558;2022-11-04T10:34:56;15.90;99.90
34460;DHT22;20704;51.260;22.558;2022-11-04T10:37:24;11.50;99.90
34460;DHT22;20704;51.260;22.558;2022-11-04T10:39:50;11.80;99.90
34460;DHT22;20704;51.260;22.558;2022-11-04T10:42:18;11.00;99.90
34460;DHT22;20704;51.260;22.558;2022-11-04T10:44:47;11.10;99.90
34460;DHT22;20704;51.260;22.558;2022-11-04T10:52:36;13.40;99.90
34460;DHT22;20704;51.260;22.558;2022-11-04T10:55:08;10.90;99.90
34460;DHT22;20704;51.260;22.558;2022-11-04T10:57:36;11.30;99.90
34460;DHT22;20704;51.260;22.558;2022-11-04T11:00:03;9.30;99.90
34460;DHT22;20704;51.260;22.558;2022-11-04T11:07:44;11.50;99.90
34460;DHT22;20704;51.260;22.558;2022-11-04T11:10:24;11.30;99.90
34460;DHT22;20704;51.260;22.558;2022-11-04T11:12:51;11.40;99.90
34460;DHT22;20704;51.260;22.558;2022-11-04T11:17:51;11.60;99.90
34460;DHT22;20704;51.260;22.558;2022-11-04T11:20:22;11.50;99.90
34460;DHT22;20704;51.260;22.558;2022-11-04T11:22:50;11.40;99.90
34460;DHT22;20704;51.260;22.558;2022-11-04T11:25:29;11.60;99.90
34460;DHT22;20704;51.260;22.558;2022-11-04T11:28:02;11.50;99.90
34460;DHT22;20704;51.260;22.558;2022-11-04T11:30:30;11.40;99.90
34460;DHT22;20704;51.260;22.558;2022-11-04T11:33:06;11.40;99.90
34460;DHT22;20704;51.260;22.558;2022-11-04T11:35:41;11.20;99.90
34460;DHT22;20704;51.260;22.558;2022-11-04T11:38:14;11.60;99.90
34460;DHT22;20704;51.260;22.558;2022-11-04T11:40:42;11.40;99.90
34460;DHT22;20704;51.260;22.558;2022-11-04T11:43:14;11.40;99.90
34460;DHT22;20704;51.260;22.558;2022-11-04T11:45:46;11.70;99.90
34460;DHT22;20704;51.260;22.558;2022-11-04T11:48:34;11.90;99.90
34460;DHT22;20704;51.260;22.558;2022-11-04T11:51:03;11.70;99.90
34460;DHT22;20704;51.260;22.558;2022-11-04T11:53:29;12.20;99.90
34460;DHT22;20704;51.260;22.558;2022-11-04T11:58:44;11.60;99.90
34460;DHT22;20704;51.260;22.558;2022-11-04T12:01:16;11.80;99.90
34460;DHT22;20704;51.260;22.558;2022-11-04T12:03:44;11.60;99.90
34460;DHT22;20704;51.260;22.558;2022-11-04T12:11:11;11.60;99.90
34460;DHT22;20704;51.260;22.558;2022-11-04T12:13:59;13.00;99.90
34460;DHT22;20704;51.260;22.558;2022-11-04T12:16:37;12.00;99.90
34460;DHT22;20704;51.260;22.558;2022-11-04T12:21:32;14.00;99.90
34460;DHT22;20704;51.260;22.558;2022-11-04T12:24:05;12.10;99.90
34460;DHT22;20704;51.260;22.558;2022-11-04T12:26:38;12.50;99.90
34460;DHT22;20704;51.260;22.558;2022-11-04T12:34:31;11.70;99.90
34460;DHT22;20704;51.260;22.558;2022-11-04T12:44:39;11.70;99.90
34460;DHT22;20704;51.260;22.558;2022-11-04T12:47:56;13.10;99.90
34460;DHT22;20704;51.260;22.558;2022-11-04T12:57:31;11.50;99.90
34460;DHT22;20704;51.260;22.558;2022-11-04T13:02:27;12.00;99.90
34460;DHT22;20704;51.260;22.558;2022-11-04T13:04:57;11.90;99.90
34460;DHT22;20704;51.260;22.558;2022-11-04T13:07:36;15.50;99.90
34460;DHT22;20704;51.260;22.558;2022-11-04T13:10:05;11.70;99.90
34460;DHT22;20704;51.260;22.558;2022-11-04T13:12:35;11.70;99.90
34460;DHT22;20704;51.260;22.558;2022-11-04T13:15:16;11.70;99.90
34460;DHT22;20704;51.260;22.558;2022-11-04T13:17:45;11.70;99.90
34460;DHT22;20704;51.260;22.558;2022-11-04T13:20:14;11.20;99.90
34460;DHT22;20704;51.260;22.558;2022-11-04T13:22:45;11.60;99.90
34460;DHT22;20704;51.260;22.558;2022-11-04T13:25:14;11.60;99.90
34460;DHT22;20704;51.260;22.558;2022-11-04T13:27:43;11.60;99.90
34460;DHT22;20704;51.260;22.558;2022-11-04T13:30:20;11.40;99.90
34460;DHT22;20704;51.260;22.558;2022-11-04T13:32:51;11.50;99.90
34460;DHT22;20704;51.260;22.558;2022-11-04T13:35:40;11.60;99.90
34460;DHT22;20704;51.260;22.558;2022-11-04T13:38:10;11.40;99.90
34460;DHT22;20704;51.260;22.558;2022-11-04T13:40:42;11.50;99.90
34460;DHT22;20704;51.260;22.558;2022-11-04T13:43:17;14.70;99.90
34460;DHT22;20704;51.260;22.558;2022-11-04T13:48:39;11.30;99.90
34460;DHT22;20704;51.260;22.558;2022-11-04T13:51:12;11.30;99.90
34460;DHT22;20704;51.260;22.558;2022-11-04T13:53:43;11.40;99.90
34460;DHT22;20704;51.260;22.558;2022-11-04T13:56:09;11.40;99.90
34460;DHT22;20704;51.260;22.558;2022-11-04T13:58:51;14.10;99.90
34460;DHT22;20704;51.260;22.558;2022-11-04T14:03:53;11.20;99.90
34460;DHT22;20704;51.260;22.558;2022-11-04T14:14:40;15.80;99.90
34460;DHT22;20704;51.260;22.558;2022-11-04T14:22:20;10.80;99.90
34460;DHT22;20704;51.260;22.558;2022-11-04T14:24:53;10.90;99.90
34460;DHT22;20704;51.260;22.558;2022-11-04T14:30:34;10.90;99.90
34460;DHT22;20704;51.260;22.558;2022-11-04T14:33:05;11.00;99.90
34460;DHT22;20704;51.260;22.558;2022-11-04T14:35:31;10.90;99.90
34460;DHT22;20704;51.260;22.558;2022-11-04T14:37:59;10.80;99.90
34460;DHT22;20704;51.260;22.558;2022-11-04T14:40:27;10.80;99.90
34460;DHT22;20704;51.260;22.558;2022-11-04T14:43:15;10.50;99.90
34460;DHT22;20704;51.260;22.558;2022-11-04T14:45:42;10.80;99.90
34460;DHT22;20704;51.260;22.558;2022-11-04T14:48:11;10.70;99.90
34460;DHT22;20704;51.260;22.558;2022-11-04T14:50:41;10.70;99.90
34460;DHT22;20704;51.260;22.558;2022-11-04T14:53:08;10.60;99.90
34460;DHT22;20704;51.260;22.558;2022-11-04T14:55:36;10.70;99.90
34460;DHT22;20704;51.260;22.558;2022-11-04T15:03:14;10.60;99.90
34460;DHT22;20704;51.260;22.558;2022-11-04T15:05:45;10.60;99.90
34460;DHT22;20704;51.260;22.558;2022-11-04T15:08:34;10.50;99.90
34460;DHT22;20704;51.260;22.558;2022-11-04T15:13:27;10.50;99.90
34460;DHT22;20704;51.260;22.558;2022-11-04T15:15:53;10.60;99.90
34460;DHT22;20704;51.260;22.558;2022-11-04T15:18:20;10.30;99.90
34460;DHT22;20704;51.260;22.558;2022-11-04T15:20:48;10.30;99.90
34460;DHT22;20704;51.260;22.558;2022-11-04T15:23:15;11.10;99.90
34460;DHT22;20704;51.260;22.558;2022-11-04T15:25:43;10.30;99.90
34460;DHT22;20704;51.260;22.558;2022-11-04T15:28:26;10.50;99.90
34460;DHT22;20704;51.260;22.558;2022-11-04T15:30:57;10.20;99.90
34460;DHT22;20704;51.260;22.558;2022-11-04T15:33:23;10.20;99.90
34460;DHT22;20704;51.260;22.558;2022-11-04T15:35:49;10.00;99.90
34460;DHT22;20704;51.260;22.558;2022-11-04T15:38:15;10.10;99.90
34460;DHT22;20704;51.260;22.558;2022-11-04T15:40:41;10.00;99.90
34460;DHT22;20704;51.260;22.558;2022-11-04T15:43:09;10.10;99.90
34460;DHT22;20704;51.260;22.558;2022-11-04T15:45:38;10.10;99.90
34460;DHT22;20704;51.260;22.558;2022-11-04T15:48:21;10.10;99.90
34460;DHT22;20704;51.260;22.558;2022-11-04T15:50:56;10.10;99.90
34460;DHT22;20704;51.260;22.558;2022-11-04T15:53:24;9.90;99.90
34460;DHT22;20704;51.260;22.558;2022-11-04T15:55:50;10.00;99.90
34460;DHT22;20704;51.260;22.558;2022-11-04T15:58:16;10.00;99.90
34460;DHT22;20704;51.260;22.558;2022-11-04T16:00:49;9.90;99.90
34460;DHT22;20704;51.260;22.558;2022-11-04T16:03:17;10.00;99.90
34460;DHT22;20704;51.260;22.558;2022-11-04T16:10:40;10.10;99.90
34460;DHT22;20704;51.260;22.558;2022-11-04T16:15:52;10.00;99.90
34460;DHT22;20704;51.260;22.558;2022-11-04T16:18:43;10.10;99.90
34460;DHT22;20704;51.260;22.558;2022-11-04T16:21:19;9.90;99.90
34460;DHT22;20704;51.260;22.558;2022-11-04T16:23:46;10.10;99.90
34460;DHT22;20704;51.260;22.558;2022-11-04T16:26:13;10.10;99.90
34460;DHT22;20704;51.260;22.558;2022-11-04T16:28:40;10.20;99.90
34460;DHT22;20704;51.260;22.558;2022-11-04T16:31:08;10.00;99.90
34460;DHT22;20704;51.260;22.558;2022-11-04T16:33:48;10.00;99.90
34460;DHT22;20704;51.260;22.558;2022-11-04T16:36:14;10.00;99.90
34460;DHT22;20704;51.260;22.558;2022-11-04T16:38:56;9.90;99.90
34460;DHT22;20704;51.260;22.558;2022-11-04T16:41:23;9.70;99.90
34460;DHT22;20704;51.260;22.558;2022-11-04T16:43:49;9.90;99.90
34460;DHT22;20704;51.260;22.558;2022-11-04T16:46:16;9.70;99.90
34460;DHT22;20704;51.260;22.558;2022-11-04T16:48:42;9.90;99.90
34460;DHT22;20704;51.260;22.558;2022-11-04T16:51:19;9.80;99.90
34460;DHT22;20704;51.260;22.558;2022-11-04T16:53:52;9.90;99.90
34460;DHT22;20704;51.260;22.558;2022-11-04T16:56:20;9.80;99.90
34460;DHT22;20704;51.260;22.558;2022-11-04T16:58:46;9.90;99.90
34460;DHT22;20704;51.260;22.558;2022-11-04T17:01:13;9.80;99.90
34460;DHT22;20704;51.260;22.558;2022-11-04T17:06:06;9.70;99.90
34460;DHT22;20704;51.260;22.558;2022-11-04T17:08:32;9.70;99.90
34460;DHT22;20704;51.260;22.558;2022-11-04T17:10:58;9.70;99.90
34460;DHT22;20704;51.260;22.558;2022-11-04T17:13:24;9.70;99.90
34460;DHT22;20704;51.260;22.558;2022-11-04T17:15:50;9.60;99.90
34460;DHT22;20704;51.260;22.558;2022-11-04T17:18:16;9.60;99.90
34460;DHT22;20704;51.260;22.558;2022-11-04T17:20:43;9.60;99.90
34460;DHT22;20704;51.260;22.558;2022-11-04T17:23:13;9.60;99.90
34460;DHT22;20704;51.260;22.558;2022-11-04T17:25:40;9.60;99.90
34460;DHT22;20704;51.260;22.558;2022-11-04T17:28:06;9.50;99.90
34460;DHT22;20704;51.260;22.558;2022-11-04T17:30:32;9.60;99.90
34460;DHT22;20704;51.260;22.558;2022-11-04T17:32:58;9.50;99.90
34460;DHT22;20704;51.260;22.558;2022-11-04T17:35:24;9.60;99.90
34460;DHT22;20704;51.260;22.558;2022-11-04T17:37:51;9.50;99.90
34460;DHT22;20704;51.260;22.558;2022-11-04T17:40:18;9.60;99.90
34460;DHT22;20704;51.260;22.558;2022-11-04T17:42:44;9.70;99.90
34460;DHT22;20704;51.260;22.558;2022-11-04T17:45:30;9.50;99.90
34460;DHT22;20704;51.260;22.558;2022-11-04T17:47:56;9.40;99.90
34460;DHT22;20704;51.260;22.558;2022-11-04T17:50:22;9.40;99.90
34460;DHT22;20704;51.260;22.558;2022-11-04T17:52:48;9.40;99.90
34460;DHT22;20704;51.260;22.558;2022-11-04T17:55:14;9.50;99.90
34460;DHT22;20704;51.260;22.558;2022-11-04T17:57:40;9.40;99.90
34460;DHT22;20704;51.260;22.558;2022-11-04T18:00:06;9.50;99.90
34460;DHT22;20704;51.260;22.558;2022-11-04T18:04:59;9.40;99.90
34460;DHT22;20704;51.260;22.558;2022-11-04T18:07:26;9.50;99.90
34460;DHT22;20704;51.260;22.558;2022-11-04T18:09:53;9.70;99.90
34460;DHT22;20704;51.260;22.558;2022-11-04T18:12:18;9.50;99.90
34460;DHT22;20704;51.260;22.558;2022-11-04T18:15:03;9.40;99.90
34460;DHT22;20704;51.260;22.558;2022-11-04T18:17:30;9.50;99.90
34460;DHT22;20704;51.260;22.558;2022-11-04T18:19:56;9.50;99.90
34460;DHT22;20704;51.260;22.558;2022-11-04T18:22:21;9.50;99.90
34460;DHT22;20704;51.260;22.558;2022-11-04T18:24:48;9.40;99.90
34460;DHT22;20704;51.260;22.558;2022-11-04T18:27:14;9.60;99.90
34460;DHT22;20704;51.260;22.558;2022-11-04T18:29:40;9.40;99.90
34460;DHT22;20704;51.260;22.558;2022-11-04T18:32:06;9.50;99.90
34460;DHT22;20704;51.260;22.558;2022-11-04T18:34:32;9.50;99.90
34460;DHT22;20704;51.260;22.558;2022-11-04T18:36:58;9.50;99.90